Terminal Aerodrome Forecast
Issued by NWS La Crosse, WI

Home | Current Version | Previous Version | Text Only | Print | Product List | Glossary On
Versions: 1 2 3 4 5 6 7 8 9 10 11 12 13 14 15 16 17 18 19 20 21 22 23 24 25 26 27 28 29
670
FTUS43 KARX 212321
TAFRST
TAF
KRST 212321Z 2200/2224 04008KT 6SM BR OVC060
     FM220300 04009KT 4SM BR OVC015
     FM220500 04010KT 2SM -DZ BR OVC008
     FM220900 05015G21KT 1SM -SN OVC005
     FM221400 05020G29KT 1/2SM SN BLSN OVC003=

USA.gov is the U.S. government's official web portal to all federal, state and local government web resources and services.